| time (UTC) | temp C | wind direction | speed KPH | gust KPH | rain 1hr cm | rain 24hr cm | rain mn cm | humidity % | barometer mb |
| 20260503230327 | 18 | 260 | 9.7 | 11.3 | 0.00 | 0.00 | 0.00 | 61 | 1011.6 |
| 20260503225818 | 19 | 270 | 8.0 | 11.3 | 0.00 | 0.00 | 0.00 | 60 | 1011.6 |
| 20260503225314 | 20 | 273 | 8.0 | 9.7 | 0.00 | 0.00 | 0.00 | 59 | 1011.7 |
| 20260503224826 | 20 | 257 | 6.4 | 9.7 | 0.00 | 0.00 | 0.00 | 57 | 1011.9 |
| 20260503224318 | 20 | 257 | 4.8 | 9.7 | 0.00 | 0.00 | 0.00 | 59 | 1012.0 |
| 20260503223829 | 20 | 246 | 6.4 | 12.9 | 0.00 | 0.00 | 0.00 | 60 | 1012.0 |
| 20260503223340 | 20 | 269 | 8.0 | 12.9 | 0.00 | 0.00 | 0.00 | 59 | 1012.1 |
| 20260503222832 | 20 | 275 | 4.8 | 6.4 | 0.00 | 0.00 | 0.00 | 56 | 1012.1 |
| 20260503222322 | 20 | 244 | 6.4 | 6.4 | 0.00 | 0.00 | 0.00 | 61 | 1012.1 |
| 20260503221814 | 19 | 281 | 4.8 | 6.4 | 0.00 | 0.00 | 0.00 | 64 | 1012.2 |
| 20260503221325 | 18 | 281 | 6.4 | 11.3 | 0.00 | 0.00 | 0.00 | 65 | 1012.4 |
| 20260503220816 | 18 | 281 | 8.0 | 11.3 | 0.00 | 0.00 | 0.00 | 61 | 1012.3 |
| 20260503220327 | 18 | 288 | 4.8 | 6.4 | 0.00 | 0.00 | 0.00 | 63 | 1012.4 |
| 20260503215823 | 18 | 288 | 4.8 | 6.4 | 0.00 | 0.00 | 0.00 | 65 | 1012.5 |
| 20260503215314 | 18 | 319 | 4.8 | 6.4 | 0.00 | 0.00 | 0.00 | 66 | 1012.6 |
| 20260503214825 | 18 | 319 | 4.8 | 6.4 | 0.00 | 0.00 | 0.00 | 64 | 1012.6 |
| 20260503214317 | 18 | 319 | 4.8 | 6.4 | 0.00 | 0.00 | 0.00 | 64 | 1012.7 |
| 20260503213829 | 18 | 319 | 4.8 | 6.4 | 0.00 | 0.00 | 0.00 | 64 | 1012.8 |
| 20260503213321 | 18 | 319 | 4.8 | 6.4 | 0.00 | 0.00 | 0.00 | 65 | 1012.7 |
| 20260503212832 | 18 | 319 | 4.8 | 6.4 | 0.00 | 0.00 | 0.00 | 65 | 1012.8 |
| 20260503212344 | 18 | 319 | 4.8 | 8.0 | 0.00 | 0.00 | 0.00 | 64 | 1012.8 |
| 20260503211815 | 18 | 319 | 6.4 | 8.0 | 0.00 | 0.00 | 0.00 | 63 | 1012.8 |
| 20260503211346 | 18 | 323 | 6.4 | 8.0 | 0.00 | 0.00 | 0.00 | 63 | 1012.9 |
| 20260503210820 | 18 | 315 | 8.0 | 8.0 | 0.00 | 0.00 | 0.00 | 62 | 1012.8 |
| 20260503210352 | 18 | 312 | 6.4 | 8.0 | 0.00 | 0.00 | 0.00 | 62 | 1012.9 |
| 20260503205822 | 18 | 320 | 6.4 | 8.0 | 0.00 | 0.00 | 0.00 | 63 | 1013.0 |
| 20260503205315 | 18 | 310 | 6.4 | 8.0 | 0.00 | 0.00 | 0.00 | 62 | 1013.1 |
| 20260503204825 | 18 | 288 | 4.8 | 6.4 | 0.00 | 0.00 | 0.00 | 67 | 1013.1 |
| 20260503204317 | 17 | 288 | 4.8 | 8.0 | 0.00 | 0.00 | 0.00 | 69 | 1013.1 |
| 20260503203828 | 17 | 288 | 6.4 | 8.0 | 0.00 | 0.00 | 0.00 | 71 | 1013.3 |
| 20260503203320 | 16 | 288 | 8.0 | 8.0 | 0.00 | 0.00 | 0.00 | 76 | 1013.2 |
| 20260503202815 | 16 | 288 | 6.4 | 8.0 | 0.00 | 0.00 | 0.00 | 77 | 1013.2 |
| 20260503202347 | 16 | 284 | 6.4 | 8.0 | 0.00 | 0.00 | 0.00 | 77 | 1013.2 |
| 20260503201818 | 16 | 281 | 6.4 | 8.0 | 0.00 | 0.00 | 0.00 | 76 | 1013.3 |
| 20260503201330 | 16 | 281 | 4.8 | 8.0 | 0.00 | 0.00 | 0.00 | 76 | 1013.3 |
| 20260503200821 | 16 | 279 | 6.4 | 9.7 | 0.00 | 0.00 | 0.00 | 75 | 1013.3 |
| 20260503200331 | 16 | 278 | 4.8 | 6.4 | 0.00 | 0.00 | 0.00 | 75 | 1013.4 |
| 20260503195822 | 17 | 294 | 4.8 | 6.4 | 0.00 | 0.00 | 0.00 | 72 | 1013.5 |
| 20260503195314 | 17 | 281 | 4.8 | 6.4 | 0.00 | 0.00 | 0.00 | 72 | 1013.5 |
| 20260503194825 | 17 | 288 | 4.8 | 4.8 | 0.00 | 0.00 | 0.00 | 70 | 1013.6 |
| 20260503194317 | 17 | 274 | 4.8 | 6.4 | 0.00 | 0.00 | 0.00 | 70 | 1013.6 |
| 20260503193849 | 17 | 274 | 4.8 | 6.4 | 0.00 | 0.00 | 0.00 | 71 | 1013.6 |
| 20260503193324 | 17 | 294 | 4.8 | 6.4 | 0.00 | 0.00 | 0.00 | 71 | 1013.7 |
| 20260503192815 | 17 | 294 | 6.4 | 6.4 | 0.00 | 0.00 | 0.00 | 72 | 1013.8 |
| 20260503192327 | 17 | 285 | 4.8 | 8.0 | 0.00 | 0.00 | 0.00 | 72 | 1013.9 |
| 20260503191818 | 17 | 289 | 6.4 | 8.0 | 0.00 | 0.00 | 0.00 | 70 | 1013.9 |
| 20260503191331 | 17 | 281 | 4.8 | 6.4 | 0.00 | 0.00 | 0.00 | 72 | 1013.8 |
| 20260503190822 | 16 | 281 | 4.8 | 11.3 | 0.00 | 0.00 | 0.00 | 72 | 1013.9 |
| 20260503190314 | 16 | 280 | 6.4 | 14.5 | 0.00 | 0.00 | 0.00 | 72 | 1014.0 |
| 20260503185825 | 16 | 284 | 11.3 | 14.5 | 0.00 | 0.00 | 0.00 | 70 | 1013.9 |
| 20260503185321 | 18 | 293 | 4.8 | 6.4 | 0.00 | 0.00 | 0.00 | 67 | 1013.9 |
| 20260503184834 | 18 | 288 | 4.8 | 6.4 | 0.00 | 0.00 | 0.00 | 67 | 1014.0 |
| 20260503184324 | 17 | 292 | 4.8 | 6.4 | 0.00 | 0.00 | 0.00 | 69 | 1014.0 |
| 20260503183816 | 17 | 292 | 3.2 | 4.8 | 0.00 | 0.00 | 0.00 | 70 | 1014.0 |
| 20260503183328 | 17 | 282 | 3.2 | 6.4 | 0.00 | 0.00 | 0.00 | 71 | 1014.2 |
| 20260503182819 | 16 | 273 | 4.8 | 6.4 | 0.00 | 0.00 | 0.00 | 71 | 1014.4 |
| 20260503182330 | 16 | 273 | 4.8 | 6.4 | 0.00 | 0.00 | 0.00 | 72 | 1014.5 |
| 20260503181822 | 16 | 282 | 4.8 | 6.4 | 0.00 | 0.00 | 0.00 | 73 | 1014.6 |
| 20260503181316 | 16 | 298 | 4.8 | 8.0 | 0.00 | 0.00 | 0.00 | 73 | 1014.7 |
| 20260503180828 | 16 | 298 | 6.4 | 8.0 | 0.00 | 0.00 | 0.00 | 73 | 1014.8 |
| 20260503180319 | 16 | 298 | 6.4 | 8.0 | 0.00 | 0.00 | 0.00 | 71 | 1014.8 |
| 20260503175831 | 16 | 277 | 6.4 | 6.4 | 0.00 | 0.00 | 0.00 | 70 | 1014.7 |
| 20260503175322 | 16 | 277 | 4.8 | 4.8 | 0.00 | 0.00 | 0.00 | 71 | 1014.7 |
| 20260503174813 | 17 | 350 | 3.2 | 4.8 | 0.00 | 0.00 | 0.00 | 71 | 1014.8 |
| 20260503174325 | 16 | 350 | 1.6 | 3.2 | 0.00 | 0.00 | 0.00 | 71 | 1014.9 |
| 20260503173816 | 16 | 350 | 1.6 | 4.8 | 0.00 | 0.00 | 0.00 | 71 | 1014.9 |
| 20260503173328 | 16 | 350 | 3.2 | 4.8 | 0.00 | 0.00 | 0.00 | 71 | 1014.9 |
| 20260503172822 | 16 | 350 | 3.2 | 4.8 | 0.00 | 0.00 | 0.00 | 72 | 1015.0 |
| 20260503172354 | 16 | 350 | 4.8 | 6.4 | 0.00 | 0.00 | 0.00 | 72 | 1015.0 |
| 20260503171843 | 15 | 350 | 4.8 | 6.4 | 0.00 | 0.00 | 0.00 | 74 | 1014.9 |
| 20260503171314 | 15 | 350 | 4.8 | 4.8 | 0.00 | 0.00 | 0.00 | 74 | 1015.0 |
| 20260503170846 | 15 | 350 | 3.2 | 6.4 | 0.00 | 0.00 | 0.00 | 75 | 1014.9 |
| 20260503170336 | 15 | 350 | 4.8 | 6.4 | 0.00 | 0.00 | 0.00 | 77 | 1015.1 |
| 20260503150816 | 16 | 252 | 6.4 | 8.0 | 0.00 | 0.00 | 0.00 | 72 | 1015.4 |
| 20260503150328 | 16 | 252 | 6.4 | 8.0 | 0.00 | 0.00 | 0.00 | 73 | 1015.5 |
| 20260503131323 | 12 | 178 | 0.0 | 3.2 | 0.00 | 0.03 | 0.00 | 83 | 1014.8 |
| 20260503130814 | 12 | 178 | 0.0 | 4.8 | 0.00 | 0.03 | 0.00 | 84 | 1014.7 |
| 20260503130326 | 12 | 178 | 3.2 | 4.8 | 0.00 | 0.03 | 0.00 | 85 | 1014.8 |
| 20260503110814 | 12 | 187 | 6.4 | 9.7 | 0.00 | 0.03 | 0.00 | 83 | 1014.7 |
| 20260503110345 | 12 | 187 | 6.4 | 9.7 | 0.00 | 0.03 | 0.00 | 83 | 1014.7 |
| 20260503090328 | 13 | 245 | 11.3 | 16.1 | 0.00 | 0.03 | 0.00 | 83 | 1014.5 |
| 20260503081328 | 12 | 244 | 12.9 | 17.7 | 0.00 | 0.03 | 0.00 | 85 | 1014.5 |
| 20260503080820 | 12 | 244 | 16.1 | 17.7 | 0.00 | 0.03 | 0.00 | 85 | 1014.5 |
| 20260503080332 | 12 | 239 | 14.5 | 19.3 | 0.00 | 0.03 | 0.00 | 86 | 1014.5 |
| 20260503072833 | 12 | 242 | 16.1 | 17.7 | 0.00 | 0.03 | 0.00 | 87 | 1014.5 |
| 20260503072324 | 12 | 247 | 14.5 | 17.7 | 0.00 | 0.03 | 0.00 | 87 | 1014.5 |
| 20260503071835 | 12 | 241 | 14.5 | 17.7 | 0.00 | 0.03 | 0.00 | 87 | 1014.5 |
| 20260503071346 | 12 | 239 | 14.5 | 17.7 | 0.00 | 0.03 | 0.03 | 88 | 1014.5 |
| 20260503070837 | 12 | 244 | 14.5 | 17.7 | 0.00 | 0.03 | 0.03 | 87 | 1014.5 |
| 20260503070346 | 12 | 246 | 16.1 | 19.3 | 0.00 | 0.03 | 0.03 | 87 | 1014.5 |
| 20260503060326 | 11 | 237 | 14.5 | 16.1 | 0.00 | 0.03 | 0.03 | 90 | 1014.6 |
| 20260503054826 | 11 | 241 | 16.1 | 19.3 | 0.00 | 0.03 | 0.03 | 89 | 1014.6 |
| 20260503054317 | 11 | 241 | 17.7 | 20.9 | 0.00 | 0.03 | 0.03 | 89 | 1014.5 |
| 20260503053829 | 12 | 241 | 16.1 | 20.9 | 0.00 | 0.03 | 0.03 | 88 | 1014.6 |
| 20260503053321 | 12 | 229 | 16.1 | 22.5 | 0.00 | 0.03 | 0.03 | 88 | 1014.6 |
| 20260503052833 | 12 | 236 | 19.3 | 25.7 | 0.00 | 0.03 | 0.03 | 89 | 1014.6 |
| 20260503052324 | 12 | 234 | 19.3 | 25.7 | 0.00 | 0.03 | 0.03 | 89 | 1014.7 |
| 20260503051814 | 12 | 229 | 19.3 | 22.5 | 0.00 | 0.03 | 0.03 | 88 | 1014.7 |
| 20260503051326 | 12 | 230 | 19.3 | 24.1 | 0.00 | 0.03 | 0.03 | 88 | 1014.7 |
| 20260503050837 | 12 | 235 | 20.9 | 24.1 | 0.00 | 0.03 | 0.03 | 86 | 1014.7 |
| 20260503050331 | 12 | 242 | 22.5 | 25.7 | 0.00 | 0.03 | 0.03 | 81 | 1014.6 |
| 20260503045822 | 15 | 240 | 20.9 | 25.7 | 0.00 | 0.03 | 0.03 | 73 | 1014.6 |
| 20260503045314 | 16 | 219 | 8.0 | 11.3 | 0.00 | 0.03 | 0.03 | 68 | 1014.5 |
| 20260503044823 | 17 | 219 | 8.0 | 9.7 | 0.00 | 0.03 | 0.03 | 66 | 1014.5 |
| 20260503044315 | 18 | 198 | 4.8 | 6.4 | 0.00 | 0.03 | 0.03 | 62 | 1014.5 |
| 20260503043826 | 18 | 234 | 4.8 | 6.4 | 0.00 | 0.03 | 0.03 | 59 | 1014.4 |
| 20260503043318 | 19 | 234 | 3.2 | 6.4 | 0.00 | 0.03 | 0.03 | 55 | 1014.4 |
| 20260503042830 | 20 | 234 | 3.2 | 6.4 | 0.00 | 0.03 | 0.03 | 54 | 1014.3 |
| 20260503042343 | 20 | 234 | 3.2 | 4.8 | 0.00 | 0.03 | 0.03 | 51 | 1014.2 |
| 20260503041816 | 20 | 234 | 3.2 | 4.8 | 0.00 | 0.03 | 0.03 | 53 | 1014.2 |
| 20260503041349 | 20 | 234 | 0.0 | 4.8 | 0.00 | 0.03 | 0.03 | 50 | 1014.2 |
| 20260503040838 | 20 | 234 | 1.6 | 4.8 | 0.00 | 0.03 | 0.03 | 50 | 1014.1 |
| 20260503040329 | 20 | 234 | 0.0 | 0.0 | 0.00 | 0.03 | 0.03 | 51 | 1014.1 |
| 20260503035820 | 21 | 234 | 0.0 | 0.0 | 0.00 | 0.03 | 0.03 | 49 | 1014.0 |
| 20260503035332 | 21 | 234 | 0.0 | 0.0 | 0.00 | 0.03 | 0.03 | 48 | 1013.9 |
| 20260503034823 | 21 | 234 | 0.0 | 1.6 | 0.00 | 0.03 | 0.03 | 48 | 1013.8 |
| 20260503034315 | 22 | 234 | 1.6 | 8.0 | 0.00 | 0.03 | 0.03 | 47 | 1013.7 |
| 20260503033826 | 22 | 234 | 3.2 | 8.0 | 0.00 | 0.03 | 0.03 | 45 | 1013.5 |
| 20260503033338 | 22 | 234 | 6.4 | 9.7 | 0.00 | 0.03 | 0.03 | 45 | 1013.5 |
| 20260503032827 | 22 | 234 | 6.4 | 9.7 | 0.00 | 0.03 | 0.03 | 46 | 1013.4 |
| 20260503032316 | 22 | 236 | 0.0 | 0.0 | 0.00 | 0.03 | 0.03 | 45 | 1013.5 |
| 20260503031831 | 22 | 236 | 0.0 | 3.2 | 0.00 | 0.03 | 0.03 | 46 | 1013.5 |
| 20260503031322 | 22 | 236 | 0.0 | 6.4 | 0.00 | 0.03 | 0.03 | 46 | 1013.5 |
| 20260503030814 | 22 | 236 | 4.8 | 8.0 | 0.00 | 0.03 | 0.03 | 47 | 1013.7 |
| 20260503030325 | 21 | 236 | 6.4 | 9.7 | 0.00 | 0.03 | 0.03 | 48 | 1013.7 |
| 20260503025817 | 21 | 225 | 4.8 | 9.7 | 0.00 | 0.03 | 0.03 | 49 | 1013.6 |
| 20260503025328 | 21 | 225 | 8.0 | 11.3 | 0.00 | 0.03 | 0.03 | 49 | 1013.7 |
| 20260503024819 | 21 | 217 | 9.7 | 12.9 | 0.00 | 0.03 | 0.03 | 52 | 1013.7 |
| 20260503024331 | 21 | 233 | 9.7 | 12.9 | 0.00 | 0.03 | 0.03 | 54 | 1013.7 |
| 20260503023827 | 20 | 225 | 11.3 | 12.9 | 0.00 | 0.03 | 0.03 | 55 | 1013.7 |
| 20260503023319 | 21 | 236 | 11.3 | 14.5 | 0.00 | 0.03 | 0.03 | 54 | 1013.6 |
| 20260503022831 | 21 | 233 | 11.3 | 14.5 | 0.00 | 0.03 | 0.03 | 54 | 1013.7 |
| 20260503022343 | 21 | 232 | 9.7 | 16.1 | 0.00 | 0.03 | 0.03 | 53 | 1013.7 |
| 20260503021833 | 20 | 236 | 12.9 | 14.5 | 0.00 | 0.03 | 0.03 | 55 | 1013.7 |
| 20260503021345 | 21 | 232 | 9.7 | 14.5 | 0.00 | 0.03 | 0.03 | 56 | 1013.7 |
| 20260503020834 | 20 | 229 | 9.7 | 12.9 | 0.00 | 0.03 | 0.03 | 60 | 1013.7 |
| 20260503020326 | 20 | 233 | 6.4 | 9.7 | 0.00 | 0.03 | 0.03 | 61 | 1013.8 |
| 20260503015818 | 20 | 216 | 8.0 | 12.9 | 0.00 | 0.03 | 0.03 | 59 | 1013.8 |
| 20260503015329 | 20 | 232 | 8.0 | 14.5 | 0.00 | 0.03 | 0.03 | 59 | 1013.8 |
| 20260503014825 | 20 | 240 | 9.7 | 14.5 | 0.00 | 0.03 | 0.03 | 58 | 1013.9 |
| 20260503014337 | 20 | 233 | 11.3 | 14.5 | 0.00 | 0.03 | 0.03 | 59 | 1013.9 |
| 20260503013827 | 20 | 222 | 9.7 | 12.9 | 0.00 | 0.03 | 0.03 | 60 | 1013.9 |
| 20260503013338 | 20 | 221 | 9.7 | 11.3 | 0.00 | 0.03 | 0.03 | 57 | 1014.0 |
| 20260503012828 | 19 | 242 | 9.7 | 12.9 | 0.00 | 0.03 | 0.03 | 58 | 1014.1 |
| 20260503012319 | 19 | 241 | 8.0 | 11.3 | 0.00 | 0.03 | 0.03 | 58 | 1014.1 |
| 20260503011831 | 20 | 254 | 8.0 | 11.3 | 0.00 | 0.03 | 0.03 | 58 | 1014.3 |
| 20260503011342 | 19 | 254 | 6.4 | 11.3 | 0.00 | 0.03 | 0.03 | 59 | 1014.3 |
| 20260503010855 | 20 | 258 | 8.0 | 11.3 | 0.00 | 0.03 | 0.03 | 58 | 1014.3 |
| 20260503010324 | 20 | 243 | 6.4 | 8.0 | 0.00 | 0.03 | 0.03 | 58 | 1014.2 |
| 20260503005820 | 20 | 260 | 4.8 | 9.7 | 0.00 | 0.03 | 0.03 | 58 | 1014.2 |
| 20260503005332 | 19 | 260 | 6.4 | 11.3 | 0.00 | 0.03 | 0.03 | 58 | 1014.2 |
| 20260503004823 | 19 | 261 | 9.7 | 11.3 | 0.00 | 0.03 | 0.03 | 59 | 1014.3 |
| 20260503004332 | 20 | 268 | 6.4 | 9.7 | 0.00 | 0.03 | 0.03 | 59 | 1014.3 |
| 20260503003822 | 20 | 265 | 6.4 | 9.7 | 0.00 | 0.03 | 0.03 | 59 | 1014.3 |
| 20260503003314 | 20 | 267 | 6.4 | 9.7 | 0.00 | 0.03 | 0.03 | 59 | 1014.3 |
| 20260503002827 | 19 | 277 | 6.4 | 8.0 | 0.00 | 0.03 | 0.03 | 59 | 1014.4 |
| 20260503002338 | 19 | 277 | 6.4 | 8.0 | 0.00 | 0.03 | 0.03 | 59 | 1014.4 |
| 20260503001829 | 19 | 277 | 6.4 | 9.7 | 0.00 | 0.03 | 0.03 | 59 | 1014.3 |
| 20260503001325 | 19 | 267 | 6.4 | 9.7 | 0.00 | 0.03 | 0.03 | 59 | 1014.4 |
| 20260503000816 | 19 | 271 | 6.4 | 9.7 | 0.00 | 0.03 | 0.03 | 58 | 1014.4 |
| 20260503000328 | 19 | 275 | 6.4 | 9.7 | 0.00 | 0.03 | 0.03 | 58 | 1014.4 |
| 20260502235820 | 19 | 279 | 6.4 | 11.3 | 0.00 | 0.03 | 0.03 | 58 | 1014.5 |
| 20260502235331 | 19 | 267 | 9.7 | 11.3 | 0.00 | 0.03 | 0.03 | 58 | 1014.6 |
| 20260502234822 | 19 | 277 | 9.7 | 12.9 | 0.00 | 0.03 | 0.03 | 57 | 1014.6 |
| 20260502234314 | 19 | 274 | 9.7 | 12.9 | 0.00 | 0.03 | 0.03 | 57 | 1014.7 |
| 20260502233825 | 19 | 281 | 9.7 | 12.9 | 0.00 | 0.03 | 0.03 | 56 | 1014.7 |
| 20260502233338 | 19 | 274 | 11.3 | 12.9 | 0.00 | 0.03 | 0.03 | 56 | 1014.8 |
| 20260502232832 | 19 | 267 | 12.9 | 12.9 | 0.00 | 0.03 | 0.03 | 57 | 1014.8 |
| 20260502232324 | 19 | 262 | 11.3 | 12.9 | 0.00 | 0.03 | 0.03 | 57 | 1014.9 |
| 20260502231836 | 19 | 258 | 11.3 | 14.5 | 0.00 | 0.03 | 0.03 | 58 | 1014.8 |
| 20260502231327 | 19 | 256 | 11.3 | 14.5 | 0.00 | 0.03 | 0.03 | 58 | 1014.9 |
| 20260502230819 | 19 | 252 | 11.3 | 14.5 | 0.00 | 0.03 | 0.03 | 58 | 1014.9 |